createdAt,value
2022-12-19T00:03:37.236Z,73.47
2022-12-19T00:13:59.546Z,74.10
2022-12-19T00:24:21.883Z,76.00
2022-12-19T00:34:43.369Z,77.03
2022-12-19T00:45:04.854Z,78.55
2022-12-19T00:55:26.203Z,78.95
2022-12-19T01:05:47.552Z,79.81
2022-12-19T01:16:11.023Z,81.52
2022-12-19T01:26:32.691Z,81.32
2022-12-19T01:36:54.090Z,82.60
2022-12-19T01:47:15.471Z,83.16
2022-12-19T01:57:37.263Z,83.39
2022-12-19T02:08:00.265Z,83.65
2022-12-19T02:18:24.607Z,83.03
2022-12-19T02:29:01.271Z,83.87
2022-12-19T02:39:30.307Z,84.19
2022-12-19T02:49:54.469Z,84.27
2022-12-19T03:00:23.142Z,84.02
2022-12-19T03:10:48.537Z,84.00
2022-12-19T03:21:28.722Z,83.43
2022-12-19T03:31:51.601Z,83.54
2022-12-19T03:42:32.222Z,83.83
2022-12-19T03:53:07.593Z,83.85
2022-12-19T04:03:30.308Z,84.56
2022-12-19T04:13:55.199Z,85.91
2022-12-19T04:24:23.990Z,86.10
2022-12-19T04:34:45.379Z,87.56
2022-12-19T04:45:07.007Z,88.23
2022-12-19T04:55:28.930Z,87.95
2022-12-19T05:05:50.322Z,87.71
2022-12-19T05:16:12.553Z,88.14
2022-12-19T05:26:33.997Z,88.45
2022-12-19T05:36:55.384Z,88.80
2022-12-19T05:47:16.746Z,88.95
2022-12-19T05:57:38.096Z,89.54
2022-12-19T06:07:59.464Z,89.96
2022-12-19T06:18:21.779Z,90.38
2022-12-19T06:28:43.192Z,90.77
2022-12-19T06:39:04.709Z,90.87
2022-12-19T06:49:26.166Z,91.39
2022-12-19T06:59:47.510Z,92.46
2022-12-19T07:10:09.325Z,92.25
2022-12-19T07:20:31.598Z,92.10
2022-12-19T07:30:52.969Z,92.12
2022-12-19T07:41:14.324Z,93.64
2022-12-19T07:51:35.739Z,93.98
2022-12-19T08:01:57.242Z,94.60
2022-12-19T08:12:19.021Z,95.13
2022-12-19T08:22:40.441Z,95.55
2022-12-19T08:33:01.791Z,96.10
2022-12-19T08:43:23.182Z,96.74
2022-12-19T08:53:46.232Z,97.07
2022-12-19T09:05:01.160Z,97.13
2022-12-19T09:14:49.009Z,98.20
2022-12-19T09:25:10.934Z,98.36
2022-12-19T09:35:32.312Z,98.34
2022-12-19T09:46:03.978Z,99.72
2022-12-19T09:56:30.135Z,99.68
2022-12-19T10:07:18.577Z,99.76
2022-12-19T10:17:36.958Z,99.39
2022-12-19T10:28:04.403Z,98.65
2022-12-19T10:38:31.261Z,99.78
2022-12-19T10:48:53.619Z,99.62
2022-12-19T10:59:19.804Z,100.00
2022-12-19T11:09:43.478Z,100.00
2022-12-19T11:29:36.866Z,99.87
2022-12-19T11:41:48.581Z,98.33
2022-12-19T11:52:23.707Z,98.65
2022-12-19T12:03:14.449Z,98.51
2022-12-19T12:22:28.271Z,98.64
2022-12-19T12:32:06.758Z,98.49
2022-12-19T12:46:05.278Z,98.83
2022-12-19T12:56:26.800Z,97.86
2022-12-19T13:06:51.185Z,98.15
2022-12-19T13:17:17.606Z,97.90
2022-12-19T13:27:39.467Z,98.15
2022-12-19T13:39:52.445Z,98.59
2022-12-19T13:48:47.560Z,98.12
2022-12-19T13:59:09.500Z,97.92
2022-12-19T14:11:28.307Z,96.31
2022-12-19T14:22:03.706Z,97.07
2022-12-19T14:31:05.923Z,97.53
2022-12-19T14:41:47.290Z,97.35
2022-12-19T14:54:40.198Z,97.43
2022-12-19T15:03:28.640Z,96.57
2022-12-19T15:14:55.304Z,96.97
2022-12-19T15:24:38.498Z,96.73
2022-12-19T15:34:59.900Z,96.72
2022-12-19T15:45:21.319Z,97.15
2022-12-19T15:55:43.761Z,96.49
2022-12-19T16:06:10.499Z,95.57
2022-12-19T16:16:31.922Z,96.12
2022-12-19T16:26:55.671Z,94.85
2022-12-19T16:37:17.038Z,95.46
2022-12-19T16:47:38.415Z,94.75
2022-12-19T16:58:00.770Z,94.18
2022-12-19T17:08:22.746Z,94.13
2022-12-19T17:18:44.896Z,93.16
2022-12-19T17:29:06.286Z,92.44
2022-12-19T17:39:29.480Z,91.40
2022-12-19T17:49:50.926Z,90.12
2022-12-19T18:00:12.750Z,90.12
2022-12-19T18:10:34.154Z,89.54
2022-12-19T18:20:55.540Z,89.04
2022-12-19T18:31:25.381Z,89.93
2022-12-19T18:41:46.981Z,89.47
2022-12-19T18:52:10.425Z,89.16
2022-12-19T19:02:32.674Z,88.63
2022-12-19T19:12:56.293Z,88.59
2022-12-19T19:23:17.727Z,88.31
2022-12-19T19:33:40.847Z,87.90
2022-12-19T19:44:02.499Z,87.78
2022-12-19T19:54:23.885Z,86.91
2022-12-19T20:04:45.737Z,86.53
2022-12-19T20:15:08.810Z,86.30
2022-12-19T20:25:30.170Z,86.07
2022-12-19T20:35:55.396Z,85.99
2022-12-19T20:46:18.449Z,85.85
2022-12-19T20:56:40.686Z,86.57
2022-12-19T21:07:02.152Z,84.97
2022-12-19T21:17:23.518Z,85.24
2022-12-19T21:27:46.622Z,85.36
2022-12-19T21:38:08.004Z,85.19
2022-12-19T21:48:29.423Z,84.84
2022-12-19T21:58:55.290Z,85.32
2022-12-19T22:09:18.819Z,85.26
2022-12-19T22:19:40.239Z,85.36
2022-12-19T22:30:08.471Z,85.03
2022-12-19T22:40:33.136Z,85.45
2022-12-19T22:50:56.732Z,85.40
2022-12-19T23:01:19.654Z,84.90
2022-12-19T23:11:41.964Z,85.27
2022-12-19T23:22:03.359Z,85.23
2022-12-19T23:32:24.943Z,85.49
2022-12-19T23:42:46.376Z,85.61
2022-12-19T23:53:07.803Z,85.63
